createdAt,value
2018-06-05T00:00:19.669Z,9.08
2018-06-05T00:02:50.267Z,8.65
2018-06-05T00:05:21.705Z,9.92
2018-06-05T00:07:51.246Z,9.97
2018-06-05T00:10:22.750Z,10.64
2018-06-05T00:12:53.427Z,12.00
2018-06-05T00:15:24.346Z,11.78
2018-06-05T00:17:55.706Z,10.84
2018-06-05T00:20:25.554Z,12.60
2018-06-05T00:22:56.313Z,10.72
2018-06-05T00:25:27.655Z,10.04
2018-06-05T00:27:58.765Z,10.93
2018-06-05T00:30:29.372Z,12.18
2018-06-05T00:33:00.648Z,13.56
2018-06-05T00:35:31.749Z,11.22
2018-06-05T00:38:02.362Z,10.80
2018-06-05T00:40:33.705Z,10.40
2018-06-05T00:43:04.337Z,12.95
2018-06-05T00:45:35.933Z,11.42
2018-06-05T00:48:06.493Z,11.55
2018-06-05T00:50:37.433Z,11.93
2018-06-05T00:53:08.681Z,11.55
2018-06-05T00:55:39.369Z,12.60
2018-06-05T00:58:09.633Z,11.33
2018-06-05T01:00:40.445Z,11.90
2018-06-05T01:03:11.329Z,13.38
2018-06-05T01:05:42.684Z,12.32
2018-06-05T01:08:13.270Z,12.25
2018-06-05T01:10:44.661Z,11.76
2018-06-05T01:13:15.598Z,13.28
2018-06-05T01:15:46.596Z,11.30
2018-06-05T01:18:17.329Z,11.60
2018-06-05T01:20:48.686Z,10.84
2018-06-05T01:23:19.317Z,10.85
2018-06-05T01:25:50.753Z,12.16
2018-06-05T01:28:21.284Z,10.68
2018-06-05T01:30:52.716Z,10.70
2018-06-05T01:33:23.256Z,13.15
2018-06-05T01:35:54.754Z,13.08
2018-06-05T01:38:25.422Z,12.13
2018-06-05T01:40:56.393Z,10.35
2018-06-05T01:43:27.676Z,11.54
2018-06-05T01:45:58.302Z,12.33
2018-06-05T01:48:28.553Z,11.87
2018-06-05T01:50:59.418Z,11.88
2018-06-05T01:53:30.604Z,12.30
2018-06-05T01:56:01.434Z,11.08
2018-06-05T01:58:32.321Z,11.53
2018-06-05T02:01:03.690Z,10.84
2018-06-05T02:03:34.346Z,11.08
2018-06-05T02:06:05.954Z,12.22
2018-06-05T02:08:36.454Z,10.80
2018-06-05T02:11:07.695Z,11.80
2018-06-05T02:13:38.365Z,12.30
2018-06-05T02:16:09.721Z,12.78
2018-06-05T02:18:39.814Z,11.90
2018-06-05T02:21:10.431Z,12.53
2018-06-05T02:23:41.337Z,12.60
2018-06-05T02:26:12.697Z,13.48
2018-06-05T02:28:43.293Z,13.10
2018-06-05T02:31:14.714Z,11.20
2018-06-05T02:33:45.358Z,11.70
2018-06-05T02:36:16.622Z,13.06
2018-06-05T02:38:47.439Z,12.28
2018-06-05T02:41:18.621Z,11.60
2018-06-05T02:43:49.415Z,11.38
2018-06-05T02:46:20.345Z,14.03
2018-06-05T02:48:51.663Z,11.62
2018-06-05T02:51:22.366Z,12.28
2018-06-05T02:53:53.666Z,12.20
2018-06-05T02:56:24.520Z,13.45
2018-06-05T02:58:55.328Z,15.40
2018-06-05T03:01:26.675Z,13.84
2018-06-05T03:03:57.293Z,13.05
2018-06-05T03:06:28.663Z,15.36
2018-06-05T03:08:59.273Z,12.20
2018-06-05T03:11:30.685Z,14.60
2018-06-05T03:14:01.434Z,12.85
2018-06-05T03:16:32.420Z,17.55
2018-06-05T03:19:03.681Z,14.82
2018-06-05T03:21:34.363Z,13.75
2018-06-05T03:24:05.693Z,13.18
2018-06-05T03:26:36.329Z,13.20
2018-06-05T03:29:06.577Z,13.17
2018-06-05T03:31:37.945Z,14.70
2018-06-05T03:34:08.357Z,13.75
2018-06-05T03:36:39.688Z,16.32
2018-06-05T03:39:10.261Z,13.68
2018-06-05T03:41:41.701Z,14.28
2018-06-05T03:44:12.257Z,14.23
2018-06-05T03:46:43.649Z,13.12
2018-06-05T03:49:14.252Z,13.90
2018-06-05T03:51:45.629Z,14.58
2018-06-05T03:54:16.341Z,14.45
2018-06-05T03:56:47.613Z,14.14
2018-06-05T03:59:18.317Z,13.75
2018-06-05T04:01:49.746Z,17.08
2018-06-05T04:04:20.387Z,13.62
2018-06-05T04:06:51.420Z,16.48
2018-06-05T04:09:22.217Z,12.88
2018-06-05T04:11:53.784Z,15.44
2018-06-05T04:14:24.261Z,12.70
2018-06-05T04:16:55.663Z,13.46
2018-06-05T04:19:25.444Z,14.20
2018-06-05T04:21:56.310Z,15.32
2018-06-05T04:24:27.622Z,18.86
2018-06-05T04:26:58.316Z,14.00
2018-06-05T04:29:29.611Z,14.62
2018-06-05T04:32:00.129Z,14.80
2018-06-05T04:34:30.601Z,16.27
2018-06-05T04:37:01.354Z,14.35
2018-06-05T04:39:32.577Z,18.50
2018-06-05T04:42:03.383Z,17.35
2018-06-05T04:44:34.677Z,18.34
2018-06-05T04:47:05.361Z,14.68
2018-06-05T04:49:36.733Z,18.20
2018-06-05T04:52:07.338Z,16.90
2018-06-05T04:54:38.643Z,15.32
2018-06-05T04:57:09.319Z,15.58
2018-06-05T04:59:40.604Z,14.80
2018-06-05T05:02:11.362Z,17.52
2018-06-05T05:04:42.608Z,15.84
2018-06-05T05:07:13.405Z,17.75
2018-06-05T05:09:44.645Z,18.32
2018-06-05T05:12:15.290Z,16.35
2018-06-05T05:14:46.729Z,16.56
2018-06-05T05:17:17.430Z,17.17
2018-06-05T05:19:48.274Z,14.18
2018-06-05T05:22:19.657Z,14.76
2018-06-05T05:24:50.366Z,14.25
2018-06-05T05:27:22.033Z,17.20
2018-06-05T05:29:51.793Z,15.93
2018-06-05T05:32:22.367Z,17.23
2018-06-05T05:34:53.612Z,15.24
2018-06-05T05:37:24.461Z,19.42
2018-06-05T05:39:55.306Z,15.63
2018-06-05T05:42:26.752Z,18.98
2018-06-05T05:44:57.302Z,18.82
2018-06-05T05:47:28.682Z,17.12
2018-06-05T05:49:59.377Z,20.05
2018-06-05T05:52:30.237Z,21.25
2018-06-05T05:55:00.590Z,17.06
2018-06-05T05:57:31.649Z,16.45
2018-06-05T06:00:02.742Z,17.37
2018-06-05T06:02:33.393Z,23.62
2018-06-05T06:05:04.825Z,18.73
2018-06-05T06:07:35.356Z,15.85
2018-06-05T06:10:06.646Z,19.16
2018-06-05T06:12:37.417Z,15.55
2018-06-05T06:15:08.276Z,18.87
2018-06-05T06:17:40.073Z,18.70
2018-06-05T06:20:10.571Z,19.70
2018-06-05T06:22:41.369Z,16.30
2018-06-05T06:25:12.661Z,17.00
2018-06-05T06:27:43.341Z,18.23
2018-06-05T06:30:14.707Z,19.64
2018-06-05T06:32:45.354Z,15.60
2018-06-05T06:35:16.618Z,16.44
2018-06-05T06:37:47.313Z,14.63
2018-06-05T06:40:18.605Z,17.56
2018-06-05T06:42:49.397Z,18.00
2018-06-05T06:45:20.581Z,16.64
2018-06-05T06:47:51.378Z,16.40
2018-06-05T06:50:21.200Z,20.40
2018-06-05T06:52:52.946Z,16.64
2018-06-05T06:55:23.414Z,16.23
2018-06-05T06:57:54.361Z,12.07
2018-06-05T07:00:25.609Z,18.76
2018-06-05T07:02:55.422Z,14.70
2018-06-05T07:05:26.318Z,14.83
2018-06-05T07:07:57.733Z,15.08
2018-06-05T07:10:28.293Z,12.90
2018-06-05T07:12:59.569Z,14.92
2018-06-05T07:15:30.275Z,14.60
2018-06-05T07:18:01.709Z,14.40
2018-06-05T07:20:32.282Z,14.73
2018-06-05T07:23:03.665Z,15.92
2018-06-05T07:25:34.338Z,12.82
2018-06-05T07:28:05.597Z,14.70
2018-06-05T07:30:36.340Z,15.98
2018-06-05T07:33:07.620Z,14.12
2018-06-05T07:35:38.345Z,15.50
2018-06-05T07:38:09.603Z,15.22
2018-06-05T07:40:40.685Z,15.28
2018-06-05T07:43:10.504Z,17.93
2018-06-05T07:45:41.309Z,18.15
2018-06-05T07:48:12.669Z,17.74
2018-06-05T07:50:43.347Z,12.65
2018-06-05T07:53:14.714Z,12.30
2018-06-05T07:55:45.358Z,13.65
2018-06-05T07:58:16.289Z,13.25
2018-06-05T08:00:47.541Z,14.82
2018-06-05T08:03:18.328Z,13.93
2018-06-05T08:05:49.650Z,10.46
2018-06-05T08:08:20.477Z,12.03
2018-06-05T08:10:51.353Z,14.80
2018-06-05T08:13:22.693Z,14.62
2018-06-05T08:15:53.286Z,13.13
2018-06-05T08:18:24.706Z,13.88
2018-06-05T08:20:55.370Z,13.65
2018-06-05T08:23:25.310Z,12.75
2018-06-05T08:25:56.513Z,11.32
2018-06-05T08:28:27.276Z,9.48
2018-06-05T08:30:58.597Z,11.16
2018-06-05T08:33:29.290Z,13.53
2018-06-05T08:36:00.573Z,9.64
2018-06-05T08:38:31.265Z,8.63
2018-06-05T08:41:02.642Z,10.22
2018-06-05T08:43:33.391Z,9.55
2018-06-05T08:46:04.269Z,8.23
2018-06-05T08:48:35.669Z,11.24
2018-06-05T08:51:06.238Z,7.83
2018-06-05T08:53:37.664Z,9.40
2018-06-05T08:56:08.265Z,10.08
2018-06-05T08:58:39.548Z,7.40
2018-06-05T09:01:10.365Z,9.00
2018-06-05T09:03:41.637Z,9.20
2018-06-05T09:06:12.341Z,7.95
2018-06-05T09:08:43.840Z,8.44
2018-06-05T09:11:14.302Z,10.20
2018-06-05T09:13:45.595Z,10.10
2018-06-05T09:16:16.266Z,9.55
2018-06-05T09:18:47.701Z,11.30
2018-06-05T09:21:18.197Z,9.18
2018-06-05T09:23:49.670Z,8.30
2018-06-05T09:26:20.254Z,8.98
2018-06-05T09:28:51.613Z,7.78
2018-06-05T09:31:23.317Z,7.26
2018-06-05T09:33:53.553Z,8.87
2018-06-05T09:36:24.300Z,8.35
2018-06-05T09:38:55.584Z,8.78
2018-06-05T09:41:26.293Z,7.20
2018-06-05T09:43:57.585Z,7.02
2018-06-05T09:46:28.282Z,7.05
2018-06-05T09:48:59.565Z,7.64
2018-06-05T09:51:30.302Z,6.92
2018-06-05T09:54:01.780Z,6.32
2018-06-05T09:56:32.364Z,7.08
2018-06-05T09:59:03.386Z,6.35
2018-06-05T10:01:34.280Z,7.22
2018-06-05T10:04:05.657Z,6.08
2018-06-05T10:06:36.250Z,6.37
2018-06-05T10:09:08.898Z,9.46
2018-06-05T10:11:38.868Z,7.83
2018-06-05T10:14:09.474Z,10.98
2018-06-05T10:16:40.261Z,6.58
2018-06-05T10:19:11.637Z,7.12
2018-06-05T10:21:43.276Z,6.30
2018-06-05T10:24:13.654Z,6.56
2018-06-05T10:26:43.446Z,10.40
2018-06-05T10:29:14.279Z,5.90
2018-06-05T10:31:44.725Z,6.00
2018-06-05T10:34:15.589Z,7.55
2018-06-05T10:36:46.281Z,6.55
2018-06-05T10:39:17.654Z,6.36
2018-06-05T10:41:48.308Z,7.72
2018-06-05T10:44:19.684Z,8.58
2018-06-05T10:46:50.331Z,10.08
2018-06-05T10:49:20.757Z,5.54
2018-06-05T10:51:51.285Z,5.62
2018-06-05T10:54:22.648Z,7.48
2018-06-05T10:56:53.242Z,5.55
2018-06-05T10:59:24.710Z,6.16
2018-06-05T11:01:55.254Z,6.10
2018-06-05T11:04:26.618Z,6.26
2018-06-05T11:06:57.216Z,5.33
2018-06-05T11:09:28.621Z,8.02
2018-06-05T11:11:58.378Z,7.17
2018-06-05T11:14:29.290Z,5.72
2018-06-05T11:16:59.526Z,11.93
2018-06-05T11:19:30.444Z,7.50
2018-06-05T11:22:02.072Z,8.30
2018-06-05T11:24:32.554Z,8.33
2018-06-05T11:27:03.247Z,5.45
2018-06-05T11:29:34.605Z,7.80
2018-06-05T11:32:05.049Z,6.42
2018-06-05T11:34:35.520Z,6.87
2018-06-05T11:37:06.348Z,5.80
2018-06-05T11:39:37.693Z,6.70
2018-06-05T11:42:08.250Z,6.97
2018-06-05T11:44:39.711Z,7.54
2018-06-05T11:47:10.290Z,11.80
2018-06-05T11:49:41.897Z,6.95
2018-06-05T11:52:12.311Z,9.35
2018-06-05T11:54:43.673Z,6.58
2018-06-05T11:57:14.261Z,7.75
2018-06-05T11:59:45.630Z,8.32
2018-06-05T12:02:16.289Z,5.37
2018-06-05T12:04:47.666Z,5.60
2018-06-05T12:07:18.294Z,8.40
2018-06-05T12:09:48.754Z,9.22
2018-06-05T12:12:19.327Z,7.42
2018-06-05T12:14:50.660Z,7.68
2018-06-05T12:17:21.233Z,9.48
2018-06-05T12:19:52.729Z,8.76
2018-06-05T12:22:23.526Z,7.22
2018-06-05T12:24:54.346Z,6.33
2018-06-05T12:27:25.197Z,6.55
2018-06-05T12:29:56.673Z,5.76
2018-06-05T12:32:27.604Z,5.42
2018-06-05T12:34:58.069Z,6.60
2018-06-05T12:37:28.503Z,6.33
2018-06-05T12:39:59.386Z,9.30
2018-06-05T12:42:30.353Z,4.83
2018-06-05T12:45:01.687Z,5.06
2018-06-05T12:47:32.880Z,7.60
2018-06-05T12:50:04.402Z,5.50
2018-06-05T12:52:35.691Z,5.65
2018-06-05T12:55:06.133Z,9.47
2018-06-05T12:57:38.452Z,5.62
2018-06-05T13:00:09.077Z,8.58
2018-06-05T13:02:39.263Z,6.57
2018-06-05T13:05:09.273Z,5.03
2018-06-05T13:07:39.882Z,5.80
2018-06-05T13:10:11.881Z,6.54
2018-06-05T13:12:43.267Z,5.43
2018-06-05T13:15:13.979Z,4.57
2018-06-05T13:17:43.974Z,4.90
2018-06-05T13:20:16.618Z,6.75
2018-06-05T13:22:47.442Z,6.10
2018-06-05T13:25:18.590Z,9.75
2018-06-05T13:27:49.040Z,4.70
2018-06-05T13:30:19.754Z,7.42
2018-06-05T13:32:49.682Z,5.00
2018-06-05T13:35:20.501Z,4.70
2018-06-05T13:37:51.446Z,4.92
2018-06-05T13:40:22.397Z,9.10
2018-06-05T13:42:52.350Z,8.50
2018-06-05T13:45:23.836Z,4.32
2018-06-05T13:47:54.388Z,4.97
2018-06-05T13:50:25.541Z,5.62
2018-06-05T13:52:56.689Z,5.80
2018-06-05T13:55:27.504Z,5.45
2018-06-05T13:57:58.373Z,7.55
2018-06-05T14:00:29.473Z,4.28
2018-06-05T14:02:59.479Z,5.85
2018-06-05T14:05:30.437Z,5.60
2018-06-05T14:08:01.837Z,6.00
2018-06-05T14:10:32.881Z,4.30
2018-06-05T14:13:04.456Z,6.28
2018-06-05T14:15:34.952Z,10.75
2018-06-05T14:18:05.490Z,9.35
2018-06-05T14:20:36.545Z,8.28
2018-06-05T14:23:07.437Z,6.78
2018-06-05T14:25:38.425Z,6.60
2018-06-05T14:28:09.471Z,5.80
2018-06-05T14:30:40.500Z,9.25
2018-06-05T14:33:11.370Z,5.47
2018-06-05T14:35:42.394Z,9.70
2018-06-05T14:38:13.737Z,7.33
2018-06-05T14:40:46.135Z,7.70
2018-06-05T14:43:18.194Z,5.58
2018-06-05T14:45:49.334Z,8.90
2018-06-05T14:48:19.915Z,6.47
2018-06-05T14:50:51.406Z,7.00
2018-06-05T14:53:21.901Z,5.43
2018-06-05T14:55:52.420Z,12.30
2018-06-05T14:58:22.289Z,8.43
2018-06-05T15:00:52.888Z,6.46
2018-06-05T15:03:24.052Z,6.27
2018-06-05T15:05:54.281Z,8.20
2018-06-05T15:08:25.331Z,9.14
2018-06-05T15:10:55.290Z,9.10
2018-06-05T15:13:26.765Z,7.42
2018-06-05T15:15:57.957Z,7.33
2018-06-05T15:18:28.557Z,7.62
2018-06-05T15:20:59.505Z,9.85
2018-06-05T15:23:30.452Z,8.15
2018-06-05T15:26:01.478Z,7.47
2018-06-05T15:28:32.414Z,9.18
2018-06-05T15:31:03.582Z,7.33
2018-06-05T15:33:34.614Z,7.58
2018-06-05T15:36:04.630Z,7.60
2018-06-05T15:38:36.645Z,10.08
2018-06-05T15:41:06.936Z,10.37
2018-06-05T15:43:37.526Z,10.98
2018-06-05T15:46:08.419Z,9.95
2018-06-05T15:48:39.336Z,10.05
2018-06-05T15:51:10.727Z,11.14
2018-06-05T15:53:41.375Z,10.23
2018-06-05T15:56:12.670Z,10.36
2018-06-05T15:58:43.353Z,10.30
2018-06-05T16:01:14.800Z,7.84
2018-06-05T16:03:45.627Z,10.00
2018-06-05T16:06:16.530Z,11.78
2018-06-05T16:08:47.650Z,13.48
2018-06-05T16:11:18.669Z,9.03
2018-06-05T16:13:49.916Z,11.65
2018-06-05T16:16:20.519Z,12.05
2018-06-05T16:18:52.094Z,9.28
2018-06-05T16:21:23.059Z,9.98
2018-06-05T16:23:54.146Z,9.40
2018-06-05T16:26:24.670Z,9.63
2018-06-05T16:28:55.226Z,12.33
2018-06-05T16:31:26.331Z,12.50
2018-06-05T16:33:56.731Z,10.00
2018-06-05T16:36:26.715Z,10.10
2018-06-05T16:38:57.446Z,9.55
2018-06-05T16:41:28.490Z,8.88
2018-06-05T16:43:59.488Z,7.22
2018-06-05T16:46:30.414Z,8.88
2018-06-05T16:49:01.846Z,7.75
2018-06-05T16:51:33.656Z,7.60
2018-06-05T16:54:04.426Z,9.73
2018-06-05T16:56:34.522Z,11.20
2018-06-05T16:59:05.971Z,6.97
2018-06-05T17:01:36.446Z,8.25
2018-06-05T17:04:07.265Z,6.70
2018-06-05T17:06:38.667Z,6.34
2018-06-05T17:09:09.650Z,8.20
2018-06-05T17:11:40.409Z,9.35
2018-06-05T17:14:11.417Z,6.85
2018-06-05T17:16:41.476Z,9.75
2018-06-05T17:19:12.363Z,6.00
2018-06-05T17:21:43.817Z,10.72
2018-06-05T17:24:14.294Z,6.37
2018-06-05T17:26:45.759Z,8.50
2018-06-05T17:29:15.597Z,13.13
2018-06-05T17:31:47.142Z,10.34
2018-06-05T17:34:18.123Z,10.40
2018-06-05T17:36:48.631Z,11.18
2018-06-05T17:39:19.589Z,8.35
2018-06-05T17:41:50.457Z,7.28
2018-06-05T17:44:21.389Z,8.85
2018-06-05T17:46:52.756Z,7.74
2018-06-05T17:49:23.366Z,9.93
2018-06-05T17:51:54.714Z,8.76
2018-06-05T17:54:25.417Z,9.83
2018-06-05T17:56:56.405Z,6.70
2018-06-05T17:59:27.307Z,6.78
2018-06-05T18:01:58.725Z,8.92
2018-06-05T18:04:29.467Z,9.13
2018-06-05T18:07:00.616Z,11.10
2018-06-05T18:09:30.537Z,10.73
2018-06-05T18:12:01.607Z,8.00
2018-06-05T18:14:32.385Z,9.60
2018-06-05T18:17:04.085Z,10.60
2018-06-05T18:19:34.694Z,12.90
2018-06-05T18:22:05.481Z,9.53
2018-06-05T18:24:36.373Z,11.05
2018-06-05T18:27:07.760Z,12.98
2018-06-05T18:29:38.281Z,8.93
2018-06-05T18:32:09.054Z,10.88
2018-06-05T18:34:39.530Z,8.45
2018-06-05T18:37:10.392Z,10.63
2018-06-05T18:39:41.524Z,11.05
2018-06-05T18:42:12.382Z,8.70
2018-06-05T18:44:44.087Z,10.46
2018-06-05T18:47:14.680Z,6.80
2018-06-05T18:49:45.372Z,10.60
2018-06-05T18:52:15.407Z,11.55
2018-06-05T18:54:46.345Z,6.80
2018-06-05T18:57:17.700Z,10.78
2018-06-05T18:59:48.465Z,13.55
2018-06-05T19:02:18.329Z,8.00
2018-06-05T19:04:49.678Z,11.84
2018-06-05T19:07:20.366Z,9.50
2018-06-05T19:09:51.666Z,10.92
2018-06-05T19:12:22.507Z,9.38
2018-06-05T19:14:53.359Z,12.68
2018-06-05T19:17:23.693Z,8.70
2018-06-05T19:19:54.457Z,10.80
2018-06-05T19:22:25.494Z,10.72
2018-06-05T19:24:56.427Z,12.95
2018-06-05T19:27:27.533Z,14.03
2018-06-05T19:29:57.430Z,14.80
2018-06-05T19:32:29.433Z,11.23
2018-06-05T19:34:59.417Z,18.83
2018-06-05T19:37:29.366Z,14.30
2018-06-05T19:40:00.721Z,15.54
2018-06-05T19:42:31.549Z,12.25
2018-06-05T19:45:02.462Z,12.95
2018-06-05T19:47:33.457Z,10.88
2018-06-05T19:50:04.920Z,16.52
2018-06-05T19:52:35.479Z,13.50
2018-06-05T19:55:06.477Z,11.88
2018-06-05T19:57:37.363Z,12.70
2018-06-05T20:00:08.752Z,14.60
2018-06-05T20:03:42.207Z,15.40
2018-06-05T20:06:12.132Z,11.73
2018-06-05T20:08:42.107Z,14.13
2018-06-05T20:11:11.905Z,10.33
2018-06-05T20:13:41.942Z,12.67
2018-06-05T20:16:11.895Z,13.97
2018-06-05T20:18:42.040Z,12.23
2018-06-05T20:21:12.041Z,14.80
2018-06-05T20:23:42.110Z,16.97
2018-06-05T20:26:12.471Z,13.17
2018-06-05T20:28:42.536Z,12.43
2018-06-05T20:31:12.553Z,14.60
2018-06-05T20:33:42.866Z,17.77
2018-06-05T20:36:13.056Z,11.27
2018-06-05T20:38:43.586Z,12.87
2018-06-05T20:41:13.523Z,12.27
2018-06-05T20:43:43.858Z,11.73
2018-06-05T20:46:14.033Z,11.30
2018-06-05T20:48:44.284Z,11.27
2018-06-05T20:51:15.135Z,14.03
2018-06-05T20:53:45.486Z,15.18
2018-06-05T20:56:37.475Z,14.27
2018-06-05T20:59:07.398Z,12.53
2018-06-05T21:01:39.517Z,12.23
2018-06-05T21:04:09.450Z,14.03
2018-06-05T21:06:39.389Z,14.67
2018-06-05T21:09:09.262Z,13.20
2018-06-05T21:11:39.134Z,12.00
2018-06-05T21:14:08.960Z,13.10
2018-06-05T21:16:38.882Z,11.53
2018-06-05T21:19:09.015Z,14.40
2018-06-05T21:21:38.981Z,16.17
2018-06-05T21:24:09.051Z,13.37
2018-06-05T21:26:39.010Z,17.93
2018-06-05T21:29:09.040Z,15.47
2018-06-05T21:31:38.967Z,17.17
2018-06-05T21:34:09.078Z,14.60
2018-06-05T21:36:38.969Z,13.47
2018-06-05T21:39:10.677Z,21.50
2018-06-05T21:41:40.773Z,16.60
2018-06-05T21:44:11.014Z,15.70
2018-06-05T21:46:47.601Z,14.13
2018-06-05T21:49:17.486Z,18.97
2018-06-05T21:51:47.388Z,14.57
2018-06-05T21:54:17.229Z,15.70
2018-06-05T21:56:47.054Z,16.27
2018-06-05T21:59:16.849Z,18.57
2018-06-05T22:01:47.047Z,14.40
2018-06-05T22:04:17.011Z,18.93
2018-06-05T22:06:46.952Z,14.07
2018-06-05T22:09:16.921Z,14.90
2018-06-05T22:11:47.143Z,12.23
2018-06-05T22:14:16.965Z,12.70
2018-06-05T22:16:46.985Z,15.07
2018-06-05T22:19:16.983Z,12.27
2018-06-05T22:21:46.943Z,11.03
2018-06-05T22:24:16.985Z,13.63
2018-06-05T22:26:47.340Z,12.90
2018-06-05T22:29:17.217Z,14.27
2018-06-05T22:31:47.053Z,10.97
2018-06-05T22:34:16.921Z,15.87
2018-06-05T22:36:46.969Z,8.57
2018-06-05T22:39:16.929Z,9.33
2018-06-05T22:41:47.321Z,10.77
2018-06-05T22:44:17.545Z,4.63
2018-06-05T22:46:47.378Z,8.47
2018-06-05T22:49:17.253Z,7.00
2018-06-05T22:51:47.068Z,9.33
2018-06-05T22:54:16.861Z,9.47
2018-06-05T22:56:46.938Z,4.03
2018-06-05T22:59:16.888Z,8.07
2018-06-05T23:01:47.005Z,5.37
2018-06-05T23:04:16.769Z,5.03
2018-06-05T23:06:46.993Z,4.87
2018-06-05T23:09:16.942Z,4.47
2018-06-05T23:11:46.957Z,3.57
2018-06-05T23:14:16.851Z,5.97
2018-06-05T23:16:46.953Z,3.07
2018-06-05T23:19:16.753Z,4.80
2018-06-05T23:21:46.990Z,4.97
2018-06-05T23:24:17.237Z,2.70
2018-06-05T23:26:47.268Z,6.27
2018-06-05T23:29:17.144Z,4.30
2018-06-05T23:31:47.405Z,4.57
2018-06-05T23:34:17.306Z,2.00
2018-06-05T23:36:47.291Z,7.87
2018-06-05T23:39:17.153Z,5.83
2018-06-05T23:41:47.078Z,2.15
2018-06-05T23:44:17.327Z,4.40
2018-06-05T23:47:00.258Z,3.02
2018-06-05T23:49:30.175Z,3.60
2018-06-05T23:52:00.038Z,5.17
2018-06-05T23:54:29.921Z,4.77
2018-06-05T23:57:00.373Z,3.23
2018-06-05T23:59:30.222Z,4.10
